sensor_id;sensor_type;location;lat;lon;timestamp;pressure;altitude;pressure_sealevel;temperature;humidity
78309;BME280;67566;42.022;21.356;2023-04-24T00:01:14;98421.19;;;10.39;66.58
78309;BME280;67566;42.022;21.356;2023-04-24T00:03:40;98419.47;;;10.35;67.62
78309;BME280;67566;42.022;21.356;2023-04-24T00:06:06;98414.22;;;10.30;67.04
78309;BME280;67566;42.022;21.356;2023-04-24T00:08:34;98409.03;;;10.25;68.12
78309;BME280;67566;42.022;21.356;2023-04-24T00:11:00;98399.75;;;10.22;67.66
78309;BME280;67566;42.022;21.356;2023-04-24T00:13:25;98397.25;;;10.17;67.94
78309;BME280;67566;42.022;21.356;2023-04-24T00:15:51;98395.78;;;10.11;68.35
78309;BME280;67566;42.022;21.356;2023-04-24T00:18:16;98398.56;;;10.06;68.32
78309;BME280;67566;42.022;21.356;2023-04-24T00:20:42;98406.53;;;10.06;68.95
78309;BME280;67566;42.022;21.356;2023-04-24T00:23:08;98406.34;;;10.02;68.72
78309;BME280;67566;42.022;21.356;2023-04-24T00:25:34;98396.59;;;9.97;68.99
78309;BME280;67566;42.022;21.356;2023-04-24T00:28:00;98399.91;;;9.94;68.50
78309;BME280;67566;42.022;21.356;2023-04-24T00:30:25;98404.41;;;9.94;68.97
78309;BME280;67566;42.022;21.356;2023-04-24T00:32:51;98400.78;;;9.90;69.00
78309;BME280;67566;42.022;21.356;2023-04-24T00:35:16;98398.72;;;9.87;68.83
78309;BME280;67566;42.022;21.356;2023-04-24T00:37:42;98390.56;;;9.83;69.00
78309;BME280;67566;42.022;21.356;2023-04-24T00:40:08;98386.13;;;9.78;69.04
78309;BME280;67566;42.022;21.356;2023-04-24T00:42:34;98383.00;;;9.76;69.80
78309;BME280;67566;42.022;21.356;2023-04-24T00:45:00;98386.56;;;9.72;69.56
78309;BME280;67566;42.022;21.356;2023-04-24T00:47:26;98385.75;;;9.71;69.94
78309;BME280;67566;42.022;21.356;2023-04-24T00:49:52;98387.44;;;9.67;69.67
78309;BME280;67566;42.022;21.356;2023-04-24T00:52:17;98391.50;;;9.64;69.64
78309;BME280;67566;42.022;21.356;2023-04-24T00:54:46;98388.34;;;9.62;69.76
78309;BME280;67566;42.022;21.356;2023-04-24T00:57:12;98391.63;;;9.59;69.98
78309;BME280;67566;42.022;21.356;2023-04-24T00:59:39;98392.22;;;9.56;69.19
78309;BME280;67566;42.022;21.356;2023-04-24T01:02:07;98389.66;;;9.51;70.62
78309;BME280;67566;42.022;21.356;2023-04-24T01:04:32;98389.75;;;9.46;70.39
78309;BME280;67566;42.022;21.356;2023-04-24T01:06:58;98391.94;;;9.44;70.19
78309;BME280;67566;42.022;21.356;2023-04-24T01:09:24;98385.63;;;9.40;70.17
78309;BME280;67566;42.022;21.356;2023-04-24T01:11:50;98377.47;;;9.36;69.76
78309;BME280;67566;42.022;21.356;2023-04-24T01:14:16;98383.88;;;9.35;70.26
78309;BME280;67566;42.022;21.356;2023-04-24T01:16:41;98376.97;;;9.34;70.21
78309;BME280;67566;42.022;21.356;2023-04-24T01:19:07;98376.19;;;9.34;69.58
78309;BME280;67566;42.022;21.356;2023-04-24T01:21:36;98380.72;;;9.33;69.91
78309;BME280;67566;42.022;21.356;2023-04-24T01:24:05;98383.50;;;9.28;70.41
78309;BME280;67566;42.022;21.356;2023-04-24T01:26:31;98387.03;;;9.23;70.44
78309;BME280;67566;42.022;21.356;2023-04-24T01:28:57;98396.38;;;9.21;70.42
78309;BME280;67566;42.022;21.356;2023-04-24T01:31:23;98395.09;;;9.18;70.91
78309;BME280;67566;42.022;21.356;2023-04-24T01:33:49;98399.63;;;9.18;70.36
78309;BME280;67566;42.022;21.356;2023-04-24T01:36:16;98391.16;;;9.16;70.60
78309;BME280;67566;42.022;21.356;2023-04-24T01:38:41;98388.00;;;9.14;70.38
78309;BME280;67566;42.022;21.356;2023-04-24T01:41:07;98395.97;;;9.14;70.74
78309;BME280;67566;42.022;21.356;2023-04-24T01:43:32;98395.78;;;9.10;70.35
78309;BME280;67566;42.022;21.356;2023-04-24T01:45:58;98389.00;;;9.04;70.76
78309;BME280;67566;42.022;21.356;2023-04-24T01:48:23;98387.50;;;8.98;70.50
78309;BME280;67566;42.022;21.356;2023-04-24T01:50:49;98384.16;;;8.92;71.20
78309;BME280;67566;42.022;21.356;2023-04-24T01:53:14;98384.75;;;8.89;71.05
78309;BME280;67566;42.022;21.356;2023-04-24T01:55:40;98382.72;;;8.86;70.96
78309;BME280;67566;42.022;21.356;2023-04-24T01:58:06;98391.25;;;8.83;71.12
78309;BME280;67566;42.022;21.356;2023-04-24T02:00:32;98387.59;;;8.79;70.86
78309;BME280;67566;42.022;21.356;2023-04-24T02:02:58;98393.22;;;8.77;71.41
78309;BME280;67566;42.022;21.356;2023-04-24T02:05:23;98392.41;;;8.77;71.26
78309;BME280;67566;42.022;21.356;2023-04-24T02:07:49;98393.50;;;8.76;70.79
78309;BME280;67566;42.022;21.356;2023-04-24T02:10:14;98398.31;;;8.74;70.96
78309;BME280;67566;42.022;21.356;2023-04-24T02:12:40;98403.94;;;8.72;70.70
78309;BME280;67566;42.022;21.356;2023-04-24T02:15:05;98398.91;;;8.71;71.43
78309;BME280;67566;42.022;21.356;2023-04-24T02:17:31;98404.50;;;8.69;71.65
78309;BME280;67566;42.022;21.356;2023-04-24T02:19:57;98396.53;;;8.69;71.00
78309;BME280;67566;42.022;21.356;2023-04-24T02:22:22;98394.19;;;8.67;71.67
78309;BME280;67566;42.022;21.356;2023-04-24T02:24:48;98388.66;;;8.64;73.00
78309;BME280;67566;42.022;21.356;2023-04-24T02:27:13;98386.09;;;8.59;72.37
78309;BME280;67566;42.022;21.356;2023-04-24T02:29:39;98379.72;;;8.60;73.08
78309;BME280;67566;42.022;21.356;2023-04-24T02:32:05;98376.75;;;8.61;73.15
78309;BME280;67566;42.022;21.356;2023-04-24T02:34:30;98377.56;;;8.62;73.42
78309;BME280;67566;42.022;21.356;2023-04-24T02:36:56;98382.38;;;8.60;73.40
78309;BME280;67566;42.022;21.356;2023-04-24T02:39:21;98372.06;;;8.58;73.19
78309;BME280;67566;42.022;21.356;2023-04-24T02:41:47;98376.56;;;8.58;73.61
78309;BME280;67566;42.022;21.356;2023-04-24T02:44:12;98369.19;;;8.55;72.68
78309;BME280;67566;42.022;21.356;2023-04-24T02:46:38;98367.91;;;8.52;73.41
78309;BME280;67566;42.022;21.356;2023-04-24T02:49:03;98371.13;;;8.49;72.92
78309;BME280;67566;42.022;21.356;2023-04-24T02:51:29;98370.94;;;8.45;73.80
78309;BME280;67566;42.022;21.356;2023-04-24T02:53:55;98362.25;;;8.40;73.68
78309;BME280;67566;42.022;21.356;2023-04-24T02:56:21;98367.34;;;8.36;72.97
78309;BME280;67566;42.022;21.356;2023-04-24T02:58:46;98369.00;;;8.32;73.41
78309;BME280;67566;42.022;21.356;2023-04-24T03:01:12;98375.69;;;8.29;73.04
78309;BME280;67566;42.022;21.356;2023-04-24T03:03:38;98381.25;;;8.28;73.24
78309;BME280;67566;42.022;21.356;2023-04-24T03:06:04;98372.03;;;8.25;72.97
78309;BME280;67566;42.022;21.356;2023-04-24T03:08:33;98372.31;;;8.24;73.34
78309;BME280;67566;42.022;21.356;2023-04-24T03:10:59;98377.13;;;8.22;73.14
78309;BME280;67566;42.022;21.356;2023-04-24T03:13:24;98374.00;;;8.20;73.45
78309;BME280;67566;42.022;21.356;2023-04-24T03:15:50;98380.16;;;8.15;73.77
78309;BME280;67566;42.022;21.356;2023-04-24T03:18:15;98373.06;;;8.10;73.80
78309;BME280;67566;42.022;21.356;2023-04-24T03:20:41;98385.53;;;8.10;73.92
78309;BME280;67566;42.022;21.356;2023-04-24T03:23:06;98384.75;;;8.09;74.32
78309;BME280;67566;42.022;21.356;2023-04-24T03:25:32;98376.00;;;8.09;75.03
78309;BME280;67566;42.022;21.356;2023-04-24T03:27:57;98382.38;;;8.08;75.16
78309;BME280;67566;42.022;21.356;2023-04-24T03:30:23;98389.03;;;8.05;74.75
78309;BME280;67566;42.022;21.356;2023-04-24T03:32:48;98386.38;;;8.05;75.73
78309;BME280;67566;42.022;21.356;2023-04-24T03:35:14;98394.13;;;8.02;75.40
78309;BME280;67566;42.022;21.356;2023-04-24T03:37:39;98393.16;;;7.98;74.46
78309;BME280;67566;42.022;21.356;2023-04-24T03:40:06;98397.75;;;7.92;74.44
78309;BME280;67566;42.022;21.356;2023-04-24T03:42:32;98397.53;;;7.88;74.79
78309;BME280;67566;42.022;21.356;2023-04-24T03:44:57;98396.50;;;7.84;75.12
78309;BME280;67566;42.022;21.356;2023-04-24T03:47:23;98407.69;;;7.81;73.78
78309;BME280;67566;42.022;21.356;2023-04-24T03:49:48;98403.97;;;7.82;74.08
78309;BME280;67566;42.022;21.356;2023-04-24T03:52:14;98407.41;;;7.83;74.44
78309;BME280;67566;42.022;21.356;2023-04-24T03:54:39;98397.31;;;7.85;73.97
78309;BME280;67566;42.022;21.356;2023-04-24T03:57:05;98397.53;;;7.88;74.39
78309;BME280;67566;42.022;21.356;2023-04-24T03:59:30;98404.59;;;7.93;74.34
78309;BME280;67566;42.022;21.356;2023-04-24T04:01:56;98399.72;;;8.00;74.20
78309;BME280;67566;42.022;21.356;2023-04-24T04:04:21;98402.00;;;8.07;73.89
78309;BME280;67566;42.022;21.356;2023-04-24T04:06:47;98406.88;;;8.19;73.50
78309;BME280;67566;42.022;21.356;2023-04-24T04:09:15;98401.63;;;8.32;72.81
78309;BME280;67566;42.022;21.356;2023-04-24T04:11:42;98398.06;;;8.42;73.22
78309;BME280;67566;42.022;21.356;2023-04-24T04:14:07;98398.09;;;8.56;72.26
78309;BME280;67566;42.022;21.356;2023-04-24T04:16:32;98400.56;;;8.80;72.43
78309;BME280;67566;42.022;21.356;2023-04-24T04:18:58;98399.44;;;9.14;72.00
78309;BME280;67566;42.022;21.356;2023-04-24T04:21:23;98411.00;;;9.46;71.50
78309;BME280;67566;42.022;21.356;2023-04-24T04:23:49;98412.16;;;9.68;70.25
78309;BME280;67566;42.022;21.356;2023-04-24T04:26:15;98410.47;;;9.86;69.56
78309;BME280;67566;42.022;21.356;2023-04-24T04:28:40;98414.06;;;10.26;69.10
78309;BME280;67566;42.022;21.356;2023-04-24T04:31:06;98417.66;;;10.75;67.88
78309;BME280;67566;42.022;21.356;2023-04-24T04:33:33;98413.97;;;11.25;66.57
78309;BME280;67566;42.022;21.356;2023-04-24T04:35:58;98418.28;;;11.79;64.83
78309;BME280;67566;42.022;21.356;2023-04-24T04:38:25;98426.47;;;12.35;63.57
78309;BME280;67566;42.022;21.356;2023-04-24T04:40:55;98426.69;;;12.85;62.17
78309;BME280;67566;42.022;21.356;2023-04-24T04:43:23;98427.47;;;13.33;62.21
78309;BME280;67566;42.022;21.356;2023-04-24T04:45:49;98424.81;;;13.84;60.28
78309;BME280;67566;42.022;21.356;2023-04-24T04:48:16;98429.69;;;14.58;58.24
78309;BME280;67566;42.022;21.356;2023-04-24T04:50:43;98430.25;;;16.68;53.66
78309;BME280;67566;42.022;21.356;2023-04-24T04:53:08;98424.59;;;20.23;45.77
78309;BME280;67566;42.022;21.356;2023-04-24T04:55:34;98426.69;;;23.05;40.02
78309;BME280;67566;42.022;21.356;2023-04-24T04:58:00;98432.00;;;25.21;35.35
78309;BME280;67566;42.022;21.356;2023-04-24T05:00:26;98425.38;;;26.87;31.98
78309;BME280;67566;42.022;21.356;2023-04-24T05:02:52;98425.75;;;28.00;29.35
78309;BME280;67566;42.022;21.356;2023-04-24T05:05:18;98422.75;;;29.00;27.65
78309;BME280;67566;42.022;21.356;2023-04-24T05:07:44;98424.63;;;30.50;26.75
78309;BME280;67566;42.022;21.356;2023-04-24T05:10:10;98424.00;;;31.76;25.11
78309;BME280;67566;42.022;21.356;2023-04-24T05:12:35;98419.72;;;32.29;23.78
78309;BME280;67566;42.022;21.356;2023-04-24T05:15:01;98419.56;;;33.69;22.86
78309;BME280;67566;42.022;21.356;2023-04-24T05:17:26;98416.63;;;34.43;21.77
78309;BME280;67566;42.022;21.356;2023-04-24T05:19:52;98420.56;;;35.33;21.14
78309;BME280;67566;42.022;21.356;2023-04-24T05:22:17;98419.91;;;36.72;19.83
78309;BME280;67566;42.022;21.356;2023-04-24T05:24:46;98419.91;;;37.13;18.70
78309;BME280;67566;42.022;21.356;2023-04-24T05:27:12;98424.16;;;37.29;18.52
78309;BME280;67566;42.022;21.356;2023-04-24T05:29:37;98425.91;;;38.31;18.32
78309;BME280;67566;42.022;21.356;2023-04-24T05:32:03;98425.31;;;39.02;17.99
78309;BME280;67566;42.022;21.356;2023-04-24T05:34:28;98428.06;;;39.85;17.37
78309;BME280;67566;42.022;21.356;2023-04-24T05:36:54;98429.59;;;40.54;15.69
78309;BME280;67566;42.022;21.356;2023-04-24T05:39:19;98432.25;;;40.99;16.59
78309;BME280;67566;42.022;21.356;2023-04-24T05:41:45;98432.75;;;41.56;15.67
78309;BME280;67566;42.022;21.356;2023-04-24T05:44:11;98435.66;;;41.81;15.81
78309;BME280;67566;42.022;21.356;2023-04-24T05:46:36;98444.06;;;42.41;14.45
78309;BME280;67566;42.022;21.356;2023-04-24T05:49:02;98434.91;;;42.90;14.49
78309;BME280;67566;42.022;21.356;2023-04-24T05:51:28;98435.53;;;43.21;14.48
78309;BME280;67566;42.022;21.356;2023-04-24T05:53:53;98431.47;;;43.60;13.44
78309;BME280;67566;42.022;21.356;2023-04-24T05:56:19;98431.25;;;44.36;13.24
78309;BME280;67566;42.022;21.356;2023-04-24T05:58:46;98436.59;;;44.93;13.43
78309;BME280;67566;42.022;21.356;2023-04-24T06:01:12;98430.84;;;45.12;12.58
78309;BME280;67566;42.022;21.356;2023-04-24T06:03:38;98426.00;;;44.86;12.15
78309;BME280;67566;42.022;21.356;2023-04-24T06:06:05;98424.41;;;43.72;13.23
78309;BME280;67566;42.022;21.356;2023-04-24T06:08:31;98424.19;;;43.13;12.97
78309;BME280;67566;42.022;21.356;2023-04-24T06:10:57;98420.69;;;44.42;12.36
78309;BME280;67566;42.022;21.356;2023-04-24T06:13:22;98417.56;;;44.00;13.09
78309;BME280;67566;42.022;21.356;2023-04-24T06:15:47;98411.50;;;44.82;12.20
78309;BME280;67566;42.022;21.356;2023-04-24T06:18:13;98412.38;;;45.38;12.13
78309;BME280;67566;42.022;21.356;2023-04-24T06:20:39;98412.41;;;45.59;11.25
78309;BME280;67566;42.022;21.356;2023-04-24T06:23:05;98411.41;;;44.61;11.51
78309;BME280;67566;42.022;21.356;2023-04-24T06:25:30;98403.16;;;44.09;12.85
78309;BME280;67566;42.022;21.356;2023-04-24T06:27:56;98396.28;;;43.59;11.82
78309;BME280;67566;42.022;21.356;2023-04-24T06:30:22;98396.63;;;43.88;13.13
78309;BME280;67566;42.022;21.356;2023-04-24T06:32:47;98393.03;;;41.33;14.32
78309;BME280;67566;42.022;21.356;2023-04-24T06:35:13;98392.16;;;43.09;13.56
78309;BME280;67566;42.022;21.356;2023-04-24T06:37:39;98401.00;;;45.09;12.47
78309;BME280;67566;42.022;21.356;2023-04-24T06:40:07;98401.00;;;46.49;12.14
78309;BME280;67566;42.022;21.356;2023-04-24T06:42:32;98393.31;;;43.70;12.42
78309;BME280;67566;42.022;21.356;2023-04-24T06:44:59;98383.31;;;43.05;13.16
78309;BME280;67566;42.022;21.356;2023-04-24T06:47:24;98387.34;;;43.93;12.53
78309;BME280;67566;42.022;21.356;2023-04-24T06:49:50;98386.75;;;43.49;13.77
78309;BME280;67566;42.022;21.356;2023-04-24T06:52:17;98390.06;;;43.66;12.39
78309;BME280;67566;42.022;21.356;2023-04-24T06:54:43;98388.72;;;44.45;12.02
78309;BME280;67566;42.022;21.356;2023-04-24T06:57:08;98384.75;;;43.11;13.18
78309;BME280;67566;42.022;21.356;2023-04-24T06:59:34;98383.84;;;44.99;11.77
78309;BME280;67566;42.022;21.356;2023-04-24T07:01:59;98391.50;;;45.12;11.53
78309;BME280;67566;42.022;21.356;2023-04-24T07:04:25;98387.00;;;44.29;12.67
78309;BME280;67566;42.022;21.356;2023-04-24T07:06:51;98383.34;;;46.27;11.33
78309;BME280;67566;42.022;21.356;2023-04-24T07:09:16;98381.47;;;46.95;10.37
78309;BME280;67566;42.022;21.356;2023-04-24T07:11:44;98387.28;;;47.95;10.52
78309;BME280;67566;42.022;21.356;2023-04-24T07:14:10;98371.59;;;48.96;9.52
78309;BME280;67566;42.022;21.356;2023-04-24T07:16:35;98370.44;;;49.91;9.36
78309;BME280;67566;42.022;21.356;2023-04-24T07:19:01;98364.38;;;50.12;8.72
78309;BME280;67566;42.022;21.356;2023-04-24T07:21:26;98364.88;;;49.25;8.83
78309;BME280;67566;42.022;21.356;2023-04-24T07:23:52;98370.59;;;50.35;8.88
78309;BME280;67566;42.022;21.356;2023-04-24T07:26:18;98376.50;;;50.30;8.55
78309;BME280;67566;42.022;21.356;2023-04-24T07:28:43;98372.06;;;47.91;9.46
78309;BME280;67566;42.022;21.356;2023-04-24T07:31:09;98365.25;;;47.47;9.57
78309;BME280;67566;42.022;21.356;2023-04-24T07:33:35;98371.50;;;47.69;9.94
78309;BME280;67566;42.022;21.356;2023-04-24T07:36:01;98367.34;;;47.47;9.65
78309;BME280;67566;42.022;21.356;2023-04-24T07:38:29;98364.53;;;47.93;9.50
78309;BME280;67566;42.022;21.356;2023-04-24T07:40:55;98361.19;;;47.04;9.82
78309;BME280;67566;42.022;21.356;2023-04-24T07:43:20;98356.97;;;47.26;9.44
78309;BME280;67566;42.022;21.356;2023-04-24T07:45:50;98350.34;;;46.28;10.40
78309;BME280;67566;42.022;21.356;2023-04-24T07:48:16;98358.38;;;45.53;11.21
78309;BME280;67566;42.022;21.356;2023-04-24T07:50:43;98353.03;;;44.00;11.88
78309;BME280;67566;42.022;21.356;2023-04-24T07:53:09;98348.78;;;44.26;12.57
78309;BME280;67566;42.022;21.356;2023-04-24T07:55:34;98346.59;;;44.45;11.78
78309;BME280;67566;42.022;21.356;2023-04-24T07:58:00;98346.94;;;44.42;11.60
78309;BME280;67566;42.022;21.356;2023-04-24T08:00:25;98351.47;;;43.21;11.92
78309;BME280;67566;42.022;21.356;2023-04-24T08:02:51;98340.13;;;44.24;11.95
78309;BME280;67566;42.022;21.356;2023-04-24T08:05:16;98337.72;;;44.81;11.14
78309;BME280;67566;42.022;21.356;2023-04-24T08:07:42;98337.78;;;42.98;12.10
78309;BME280;67566;42.022;21.356;2023-04-24T08:10:09;98336.25;;;41.80;13.31
78309;BME280;67566;42.022;21.356;2023-04-24T08:12:35;98336.16;;;38.97;15.67
78309;BME280;67566;42.022;21.356;2023-04-24T08:15:01;98329.72;;;38.13;16.73
78309;BME280;67566;42.022;21.356;2023-04-24T08:17:26;98325.91;;;37.79;17.12
78309;BME280;67566;42.022;21.356;2023-04-24T08:19:52;98321.13;;;37.27;17.27
78309;BME280;67566;42.022;21.356;2023-04-24T08:22:24;98328.53;;;35.68;18.33
78309;BME280;67566;42.022;21.356;2023-04-24T08:24:50;98316.91;;;33.80;20.59
78309;BME280;67566;42.022;21.356;2023-04-24T08:27:15;98318.75;;;32.04;22.42
78309;BME280;67566;42.022;21.356;2023-04-24T08:29:41;98316.34;;;31.30;22.41
78309;BME280;67566;42.022;21.356;2023-04-24T08:32:06;98319.16;;;30.69;22.85
78309;BME280;67566;42.022;21.356;2023-04-24T08:34:32;98321.09;;;30.60;23.62
78309;BME280;67566;42.022;21.356;2023-04-24T08:36:57;98309.78;;;30.93;22.59
78309;BME280;67566;42.022;21.356;2023-04-24T08:39:23;98314.38;;;30.48;23.14
78309;BME280;67566;42.022;21.356;2023-04-24T08:41:50;98308.03;;;29.87;24.74
78309;BME280;67566;42.022;21.356;2023-04-24T08:44:16;98306.38;;;29.77;24.75
78309;BME280;67566;42.022;21.356;2023-04-24T08:46:43;98301.75;;;29.31;25.66
78309;BME280;67566;42.022;21.356;2023-04-24T08:49:12;98294.38;;;27.64;27.17
78309;BME280;67566;42.022;21.356;2023-04-24T08:51:39;98287.81;;;26.98;27.92
78309;BME280;67566;42.022;21.356;2023-04-24T08:54:05;98293.03;;;27.52;28.65
78309;BME280;67566;42.022;21.356;2023-04-24T08:56:33;98283.66;;;27.53;27.63
78309;BME280;67566;42.022;21.356;2023-04-24T08:58:59;98287.38;;;27.23;29.41
78309;BME280;67566;42.022;21.356;2023-04-24T09:01:27;98286.09;;;26.13;30.10
78309;BME280;67566;42.022;21.356;2023-04-24T09:03:54;98277.41;;;27.12;28.88
78309;BME280;67566;42.022;21.356;2023-04-24T09:06:21;98277.00;;;27.54;27.76
78309;BME280;67566;42.022;21.356;2023-04-24T09:08:49;98273.88;;;28.09;25.94
78309;BME280;67566;42.022;21.356;2023-04-24T09:11:18;98267.97;;;28.27;26.12
78309;BME280;67566;42.022;21.356;2023-04-24T09:13:45;98273.44;;;28.43;26.10
78309;BME280;67566;42.022;21.356;2023-04-24T09:16:11;98273.56;;;27.86;26.79
78309;BME280;67566;42.022;21.356;2023-04-24T09:18:37;98263.03;;;28.38;26.83
78309;BME280;67566;42.022;21.356;2023-04-24T09:21:06;98260.31;;;27.85;27.68
78309;BME280;67566;42.022;21.356;2023-04-24T09:23:32;98252.25;;;27.78;27.56
78309;BME280;67566;42.022;21.356;2023-04-24T09:25:58;98259.00;;;28.26;27.11
78309;BME280;67566;42.022;21.356;2023-04-24T09:28:37;98250.41;;;27.15;29.21
78309;BME280;67566;42.022;21.356;2023-04-24T09:31:05;98249.41;;;26.85;28.95
78309;BME280;67566;42.022;21.356;2023-04-24T09:33:32;98240.34;;;26.68;29.27
78309;BME280;67566;42.022;21.356;2023-04-24T09:35:59;98241.47;;;27.14;29.46
78309;BME280;67566;42.022;21.356;2023-04-24T09:38:36;98234.03;;;27.35;28.99
78309;BME280;67566;42.022;21.356;2023-04-24T09:41:03;98221.41;;;27.01;28.84
78309;BME280;67566;42.022;21.356;2023-04-24T09:43:30;98228.34;;;26.85;29.02
78309;BME280;67566;42.022;21.356;2023-04-24T09:45:57;98222.94;;;27.22;28.66
78309;BME280;67566;42.022;21.356;2023-04-24T09:48:33;98219.00;;;27.63;28.07
78309;BME280;67566;42.022;21.356;2023-04-24T09:51:01;98222.59;;;27.00;28.60
78309;BME280;67566;42.022;21.356;2023-04-24T09:53:28;98220.78;;;27.13;28.09
78309;BME280;67566;42.022;21.356;2023-04-24T09:55:54;98206.16;;;26.60;30.02
78309;BME280;67566;42.022;21.356;2023-04-24T09:58:25;98207.78;;;27.17;28.16
78309;BME280;67566;42.022;21.356;2023-04-24T10:00:54;98215.88;;;26.61;29.61
78309;BME280;67566;42.022;21.356;2023-04-24T10:03:21;98205.50;;;25.50;31.22
78309;BME280;67566;42.022;21.356;2023-04-24T10:05:48;98199.66;;;25.17;31.94
78309;BME280;67566;42.022;21.356;2023-04-24T10:08:14;98189.75;;;25.34;30.95
78309;BME280;67566;42.022;21.356;2023-04-24T10:10:44;98201.84;;;25.88;30.77
78309;BME280;67566;42.022;21.356;2023-04-24T10:13:12;98189.50;;;25.52;31.43
78309;BME280;67566;42.022;21.356;2023-04-24T10:15:38;98192.34;;;25.45;30.61
78309;BME280;67566;42.022;21.356;2023-04-24T10:18:05;98189.91;;;25.20;32.14
78309;BME280;67566;42.022;21.356;2023-04-24T10:20:32;98177.31;;;24.64;33.31
78309;BME280;67566;42.022;21.356;2023-04-24T10:22:59;98176.66;;;24.87;32.98
78309;BME280;67566;42.022;21.356;2023-04-24T10:25:27;98172.84;;;25.47;31.31
78309;BME280;67566;42.022;21.356;2023-04-24T10:27:53;98163.53;;;25.44;31.78
78309;BME280;67566;42.022;21.356;2023-04-24T10:30:23;98173.63;;;25.16;31.67
78309;BME280;67566;42.022;21.356;2023-04-24T10:32:48;98169.25;;;24.88;32.39
78309;BME280;67566;42.022;21.356;2023-04-24T10:35:15;98168.41;;;24.60;31.50
78309;BME280;67566;42.022;21.356;2023-04-24T10:37:50;98167.56;;;24.25;31.61
78309;BME280;67566;42.022;21.356;2023-04-24T10:40:18;98159.59;;;24.04;32.85
78309;BME280;67566;42.022;21.356;2023-04-24T10:42:47;98156.69;;;24.25;32.80
78309;BME280;67566;42.022;21.356;2023-04-24T10:45:21;98147.28;;;23.88;33.22
78309;BME280;67566;42.022;21.356;2023-04-24T10:47:57;98145.56;;;23.53;33.32
78309;BME280;67566;42.022;21.356;2023-04-24T10:50:26;98146.94;;;23.79;32.61
78309;BME280;67566;42.022;21.356;2023-04-24T10:52:52;98136.31;;;23.40;34.27
78309;BME280;67566;42.022;21.356;2023-04-24T10:58:07;98129.91;;;23.71;32.05
78309;BME280;67566;42.022;21.356;2023-04-24T11:00:32;98130.13;;;23.39;33.45
78309;BME280;67566;42.022;21.356;2023-04-24T11:03:04;98118.88;;;23.37;33.88
78309;BME280;67566;42.022;21.356;2023-04-24T11:11:18;98121.28;;;23.28;34.10
78309;BME280;67566;42.022;21.356;2023-04-24T11:16:27;98115.47;;;23.22;33.99
78309;BME280;67566;42.022;21.356;2023-04-24T11:21:47;98100.84;;;22.91;33.28
78309;BME280;67566;42.022;21.356;2023-04-24T11:24:29;98105.81;;;23.17;31.52
78309;BME280;67566;42.022;21.356;2023-04-24T11:26:58;98107.84;;;22.88;32.50
78309;BME280;67566;42.022;21.356;2023-04-24T11:32:26;98091.97;;;22.83;34.12
78309;BME280;67566;42.022;21.356;2023-04-24T11:34:54;98089.13;;;23.15;33.78
78309;BME280;67566;42.022;21.356;2023-04-24T11:37:22;98080.28;;;23.60;32.54
78309;BME280;67566;42.022;21.356;2023-04-24T11:39:56;98079.41;;;23.74;33.52
78309;BME280;67566;42.022;21.356;2023-04-24T11:42:22;98074.69;;;23.85;33.01
78309;BME280;67566;42.022;21.356;2023-04-24T11:44:50;98081.75;;;24.17;31.67
78309;BME280;67566;42.022;21.356;2023-04-24T11:47:17;98076.09;;;23.97;32.25
78309;BME280;67566;42.022;21.356;2023-04-24T11:49:43;98071.13;;;23.88;31.56
78309;BME280;67566;42.022;21.356;2023-04-24T11:52:09;98064.91;;;24.29;31.30
78309;BME280;67566;42.022;21.356;2023-04-24T11:54:36;98058.19;;;24.41;30.42
78309;BME280;67566;42.022;21.356;2023-04-24T11:57:04;98055.84;;;24.05;31.27
78309;BME280;67566;42.022;21.356;2023-04-24T11:59:35;98057.88;;;23.98;32.06
78309;BME280;67566;42.022;21.356;2023-04-24T12:02:00;98058.38;;;23.85;33.00
78309;BME280;67566;42.022;21.356;2023-04-24T12:04:26;98048.59;;;23.91;32.23
78309;BME280;67566;42.022;21.356;2023-04-24T12:07:03;98048.03;;;23.10;33.58
78309;BME280;67566;42.022;21.356;2023-04-24T12:09:44;98035.50;;;23.27;32.99
78309;BME280;67566;42.022;21.356;2023-04-24T12:12:11;98035.31;;;23.55;33.96
78309;BME280;67566;42.022;21.356;2023-04-24T12:14:52;98031.31;;;23.15;34.60
78309;BME280;67566;42.022;21.356;2023-04-24T12:17:30;98036.19;;;22.75;36.08
78309;BME280;67566;42.022;21.356;2023-04-24T12:20:04;98041.00;;;22.31;36.70
78309;BME280;67566;42.022;21.356;2023-04-24T12:22:49;98027.44;;;22.38;35.80
78309;BME280;67566;42.022;21.356;2023-04-24T12:25:16;98038.22;;;22.56;36.28
78309;BME280;67566;42.022;21.356;2023-04-24T12:27:47;98018.88;;;22.43;35.85
78309;BME280;67566;42.022;21.356;2023-04-24T12:30:17;98018.53;;;22.34;36.00
78309;BME280;67566;42.022;21.356;2023-04-24T12:32:45;98016.44;;;22.67;36.35
78309;BME280;67566;42.022;21.356;2023-04-24T12:35:11;98018.47;;;22.56;35.53
78309;BME280;67566;42.022;21.356;2023-04-24T12:37:37;98001.72;;;22.68;35.27
78309;BME280;67566;42.022;21.356;2023-04-24T12:40:08;97986.84;;;22.87;35.90
78309;BME280;67566;42.022;21.356;2023-04-24T12:42:35;97982.59;;;22.90;36.03
78309;BME280;67566;42.022;21.356;2023-04-24T12:45:06;97965.41;;;23.11;35.45
78309;BME280;67566;42.022;21.356;2023-04-24T12:47:32;97971.63;;;23.04;34.30
78309;BME280;67566;42.022;21.356;2023-04-24T12:49:59;97965.31;;;23.22;35.23
78309;BME280;67566;42.022;21.356;2023-04-24T12:52:28;97952.88;;;23.28;35.09
78309;BME280;67566;42.022;21.356;2023-04-24T12:54:56;97945.72;;;23.45;34.81
78309;BME280;67566;42.022;21.356;2023-04-24T12:57:23;97938.69;;;23.51;35.14
78309;BME280;67566;42.022;21.356;2023-04-24T12:59:49;97937.16;;;23.88;34.67
78309;BME280;67566;42.022;21.356;2023-04-24T13:02:15;97927.53;;;23.42;34.91
78309;BME280;67566;42.022;21.356;2023-04-24T13:04:45;97918.50;;;23.03;35.97
78309;BME280;67566;42.022;21.356;2023-04-24T13:07:11;97920.19;;;22.86;36.66